sensor_id;sensor_type;location;lat;lon;timestamp;pressure;altitude;pressure_sealevel;temperature
79053;BMP280;68451;49.510;6.026;2023-09-30T00:00:16;98972.22;;;11.95
79053;BMP280;68451;49.510;6.026;2023-09-30T00:02:42;99017.66;;;12.21
79053;BMP280;68451;49.510;6.026;2023-09-30T00:05:07;99021.09;;;12.21
79053;BMP280;68451;49.510;6.026;2023-09-30T00:07:33;99060.50;;;12.39
79053;BMP280;68451;49.510;6.026;2023-09-30T00:09:59;99020.31;;;12.14
79053;BMP280;68451;49.510;6.026;2023-09-30T00:12:25;99009.03;;;12.07
79053;BMP280;68451;49.510;6.026;2023-09-30T00:14:51;99016.50;;;12.03
79053;BMP280;68451;49.510;6.026;2023-09-30T00:17:18;99009.06;;;12.00
79053;BMP280;68451;49.510;6.026;2023-09-30T00:19:45;99049.69;;;12.16
79053;BMP280;68451;49.510;6.026;2023-09-30T00:22:10;98963.81;;;11.67
79053;BMP280;68451;49.510;6.026;2023-09-30T00:24:36;98864.94;;;11.05
79053;BMP280;68451;49.510;6.026;2023-09-30T00:27:01;98854.88;;;10.95
79053;BMP280;68451;49.510;6.026;2023-09-30T00:29:27;99038.44;;;12.02
79053;BMP280;68451;49.510;6.026;2023-09-30T00:31:52;99040.06;;;11.97
79053;BMP280;68451;49.510;6.026;2023-09-30T00:34:18;99027.00;;;11.84
79053;BMP280;68451;49.510;6.026;2023-09-30T00:36:43;99069.03;;;12.02
79053;BMP280;68451;49.510;6.026;2023-09-30T00:39:09;99048.13;;;11.89
79053;BMP280;68451;49.510;6.026;2023-09-30T00:41:35;98984.75;;;11.47
79053;BMP280;68451;49.510;6.026;2023-09-30T00:44:02;99049.53;;;11.98
79053;BMP280;68451;49.510;6.026;2023-09-30T00:46:32;98989.78;;;11.55
79053;BMP280;68451;49.510;6.026;2023-09-30T00:48:59;99038.88;;;11.80
79053;BMP280;68451;49.510;6.026;2023-09-30T00:51:28;99049.75;;;11.83
79053;BMP280;68451;49.510;6.026;2023-09-30T00:53:57;99045.91;;;11.79
79053;BMP280;68451;49.510;6.026;2023-09-30T00:56:26;99061.81;;;11.97
79053;BMP280;68451;49.510;6.026;2023-09-30T00:58:52;98973.31;;;11.42
79053;BMP280;68451;49.510;6.026;2023-09-30T01:01:19;98910.59;;;11.02
79053;BMP280;68451;49.510;6.026;2023-09-30T01:03:46;99044.72;;;11.82
79053;BMP280;68451;49.510;6.026;2023-09-30T01:06:12;98835.38;;;10.45
79053;BMP280;68451;49.510;6.026;2023-09-30T01:08:38;99025.56;;;11.61
79053;BMP280;68451;49.510;6.026;2023-09-30T01:11:03;99022.97;;;11.55
79053;BMP280;68451;49.510;6.026;2023-09-30T01:13:36;99076.13;;;11.82
79053;BMP280;68451;49.510;6.026;2023-09-30T01:16:07;99025.78;;;11.53
79053;BMP280;68451;49.510;6.026;2023-09-30T01:18:34;99086.97;;;11.92
79053;BMP280;68451;49.510;6.026;2023-09-30T01:21:04;99032.44;;;11.62
79053;BMP280;68451;49.510;6.026;2023-09-30T01:23:31;99033.44;;;11.61
79053;BMP280;68451;49.510;6.026;2023-09-30T01:25:56;99040.88;;;11.71
79053;BMP280;68451;49.510;6.026;2023-09-30T01:28:22;99028.00;;;11.63
79053;BMP280;68451;49.510;6.026;2023-09-30T01:30:48;99076.13;;;11.82
79053;BMP280;68451;49.510;6.026;2023-09-30T01:33:14;98953.16;;;11.03
79053;BMP280;68451;49.510;6.026;2023-09-30T01:35:41;99052.53;;;11.62
79053;BMP280;68451;49.510;6.026;2023-09-30T01:38:07;99065.63;;;11.68
79053;BMP280;68451;49.510;6.026;2023-09-30T01:40:32;99076.28;;;11.67
79053;BMP280;68451;49.510;6.026;2023-09-30T01:42:58;98842.59;;;10.23
79053;BMP280;68451;49.510;6.026;2023-09-30T01:45:24;99078.31;;;11.72
79053;BMP280;68451;49.510;6.026;2023-09-30T01:47:49;99031.63;;;11.36
79053;BMP280;68451;49.510;6.026;2023-09-30T01:50:15;99068.44;;;11.47
79053;BMP280;68451;49.510;6.026;2023-09-30T01:52:40;99046.91;;;11.19
79053;BMP280;68451;49.510;6.026;2023-09-30T01:55:06;99034.41;;;11.01
79053;BMP280;68451;49.510;6.026;2023-09-30T01:57:32;99107.63;;;11.34
79053;BMP280;68451;49.510;6.026;2023-09-30T01:59:57;99099.41;;;11.24
79053;BMP280;68451;49.510;6.026;2023-09-30T02:02:22;99040.78;;;10.86
79053;BMP280;68451;49.510;6.026;2023-09-30T02:04:48;99059.09;;;10.92
79053;BMP280;68451;49.510;6.026;2023-09-30T02:07:14;99084.25;;;11.00
79053;BMP280;68451;49.510;6.026;2023-09-30T02:09:40;99081.63;;;11.00
79053;BMP280;68451;49.510;6.026;2023-09-30T02:12:05;99001.75;;;10.58
79053;BMP280;68451;49.510;6.026;2023-09-30T02:14:33;98983.22;;;10.46
79053;BMP280;68451;49.510;6.026;2023-09-30T02:16:58;99041.41;;;10.88
79053;BMP280;68451;49.510;6.026;2023-09-30T02:19:24;99024.88;;;10.74
79053;BMP280;68451;49.510;6.026;2023-09-30T02:21:50;99027.91;;;10.71
79053;BMP280;68451;49.510;6.026;2023-09-30T02:24:15;99018.81;;;10.67
79053;BMP280;68451;49.510;6.026;2023-09-30T02:26:42;98939.28;;;10.09
79053;BMP280;68451;49.510;6.026;2023-09-30T02:29:07;98860.41;;;9.59
79053;BMP280;68451;49.510;6.026;2023-09-30T02:31:33;98982.56;;;10.38
79053;BMP280;68451;49.510;6.026;2023-09-30T02:33:59;99064.47;;;10.77
79053;BMP280;68451;49.510;6.026;2023-09-30T02:36:24;99042.09;;;10.49
79053;BMP280;68451;49.510;6.026;2023-09-30T02:38:50;99080.28;;;10.63
79053;BMP280;68451;49.510;6.026;2023-09-30T02:41:16;98922.19;;;9.59
79053;BMP280;68451;49.510;6.026;2023-09-30T02:43:41;99040.75;;;10.25
79053;BMP280;68451;49.510;6.026;2023-09-30T02:46:07;99071.38;;;10.44
79053;BMP280;68451;49.510;6.026;2023-09-30T02:48:33;99047.72;;;10.18
79053;BMP280;68451;49.510;6.026;2023-09-30T02:50:59;99075.34;;;10.33
79053;BMP280;68451;49.510;6.026;2023-09-30T02:53:24;99046.47;;;10.07
79053;BMP280;68451;49.510;6.026;2023-09-30T02:55:50;98985.16;;;9.62
79053;BMP280;68451;49.510;6.026;2023-09-30T02:58:21;99049.25;;;10.06
79053;BMP280;68451;49.510;6.026;2023-09-30T03:00:50;99056.75;;;10.15
79053;BMP280;68451;49.510;6.026;2023-09-30T03:03:15;99092.03;;;10.39
79053;BMP280;68451;49.510;6.026;2023-09-30T03:05:41;99039.59;;;10.00
79053;BMP280;68451;49.510;6.026;2023-09-30T03:08:06;98906.28;;;9.19
79053;BMP280;68451;49.510;6.026;2023-09-30T03:10:32;99038.72;;;9.93
79053;BMP280;68451;49.510;6.026;2023-09-30T03:12:57;99078.81;;;10.13
79053;BMP280;68451;49.510;6.026;2023-09-30T03:15:29;99061.03;;;9.95
79053;BMP280;68451;49.510;6.026;2023-09-30T03:17:58;99071.66;;;9.94
79053;BMP280;68451;49.510;6.026;2023-09-30T03:20:25;99092.66;;;10.13
79053;BMP280;68451;49.510;6.026;2023-09-30T03:22:51;99091.88;;;10.13
79053;BMP280;68451;49.510;6.026;2023-09-30T03:25:18;99050.06;;;9.78
79053;BMP280;68451;49.510;6.026;2023-09-30T03:27:46;98712.53;;;7.67
79053;BMP280;68451;49.510;6.026;2023-09-30T03:30:12;99070.75;;;9.80
79053;BMP280;68451;49.510;6.026;2023-09-30T03:32:39;99070.47;;;9.68
79053;BMP280;68451;49.510;6.026;2023-09-30T03:35:09;99026.69;;;9.36
79053;BMP280;68451;49.510;6.026;2023-09-30T03:37:45;99085.91;;;9.70
79053;BMP280;68451;49.510;6.026;2023-09-30T03:40:12;98954.75;;;8.92
79053;BMP280;68451;49.510;6.026;2023-09-30T03:42:45;99073.44;;;9.65
79053;BMP280;68451;49.510;6.026;2023-09-30T03:45:11;99086.41;;;9.80
79053;BMP280;68451;49.510;6.026;2023-09-30T03:47:40;99090.00;;;9.79
79053;BMP280;68451;49.510;6.026;2023-09-30T03:50:06;99071.41;;;9.61
79053;BMP280;68451;49.510;6.026;2023-09-30T03:52:39;98982.28;;;9.02
79053;BMP280;68451;49.510;6.026;2023-09-30T03:55:05;99077.53;;;9.74
79053;BMP280;68451;49.510;6.026;2023-09-30T03:57:33;99000.13;;;9.26
79053;BMP280;68451;49.510;6.026;2023-09-30T04:00:00;99021.81;;;9.33
79053;BMP280;68451;49.510;6.026;2023-09-30T04:02:26;99026.38;;;9.24
79053;BMP280;68451;49.510;6.026;2023-09-30T04:04:51;99066.47;;;9.44
79053;BMP280;68451;49.510;6.026;2023-09-30T04:07:19;99087.31;;;9.44
79053;BMP280;68451;49.510;6.026;2023-09-30T04:09:46;99028.44;;;9.08
79053;BMP280;68451;49.510;6.026;2023-09-30T04:12:12;99070.09;;;9.29
79053;BMP280;68451;49.510;6.026;2023-09-30T04:14:37;99059.91;;;9.27
79053;BMP280;68451;49.510;6.026;2023-09-30T04:17:03;99062.84;;;9.24
79053;BMP280;68451;49.510;6.026;2023-09-30T04:19:29;98957.09;;;8.66
79053;BMP280;68451;49.510;6.026;2023-09-30T04:21:56;99052.25;;;9.26
79053;BMP280;68451;49.510;6.026;2023-09-30T04:24:21;99091.78;;;9.51
79053;BMP280;68451;49.510;6.026;2023-09-30T04:26:47;99078.44;;;9.39
79053;BMP280;68451;49.510;6.026;2023-09-30T04:29:15;98885.91;;;8.17
79053;BMP280;68451;49.510;6.026;2023-09-30T04:31:41;99046.28;;;9.11
79053;BMP280;68451;49.510;6.026;2023-09-30T04:34:07;99091.03;;;9.35
79053;BMP280;68451;49.510;6.026;2023-09-30T04:36:33;98964.72;;;8.46
79053;BMP280;68451;49.510;6.026;2023-09-30T04:39:01;99088.59;;;9.13
79053;BMP280;68451;49.510;6.026;2023-09-30T04:41:28;99072.47;;;9.03
79053;BMP280;68451;49.510;6.026;2023-09-30T04:43:53;99053.09;;;8.90
79053;BMP280;68451;49.510;6.026;2023-09-30T04:46:19;99089.41;;;9.13
79053;BMP280;68451;49.510;6.026;2023-09-30T04:48:48;99037.97;;;8.79
79053;BMP280;68451;49.510;6.026;2023-09-30T04:51:14;99067.25;;;9.03
79053;BMP280;68451;49.510;6.026;2023-09-30T04:53:41;99063.41;;;8.98
79053;BMP280;68451;49.510;6.026;2023-09-30T04:56:07;99057.59;;;8.96
79053;BMP280;68451;49.510;6.026;2023-09-30T04:58:32;99100.78;;;9.27
79053;BMP280;68451;49.510;6.026;2023-09-30T05:00:58;99023.59;;;8.83
79053;BMP280;68451;49.510;6.026;2023-09-30T05:03:23;99093.66;;;9.35
79053;BMP280;68451;49.510;6.026;2023-09-30T05:05:51;99047.56;;;9.15
79053;BMP280;68451;49.510;6.026;2023-09-30T05:08:19;99096.53;;;9.47
79053;BMP280;68451;49.510;6.026;2023-09-30T05:10:44;99074.97;;;9.32
79053;BMP280;68451;49.510;6.026;2023-09-30T05:13:11;99104.63;;;9.52
79053;BMP280;68451;49.510;6.026;2023-09-30T05:15:37;99069.38;;;9.35
79053;BMP280;68451;49.510;6.026;2023-09-30T05:18:03;99020.34;;;9.03
79053;BMP280;68451;49.510;6.026;2023-09-30T05:20:30;99123.63;;;9.67
79053;BMP280;68451;49.510;6.026;2023-09-30T05:22:56;99130.81;;;9.65
79053;BMP280;68451;49.510;6.026;2023-09-30T05:25:21;99152.25;;;9.82
79053;BMP280;68451;49.510;6.026;2023-09-30T05:27:51;99119.13;;;9.61
79053;BMP280;68451;49.510;6.026;2023-09-30T05:30:17;99101.53;;;9.63
79053;BMP280;68451;49.510;6.026;2023-09-30T05:32:45;99130.50;;;9.75
79053;BMP280;68451;49.510;6.026;2023-09-30T05:35:12;99084.72;;;9.44
79053;BMP280;68451;49.510;6.026;2023-09-30T05:37:42;99151.84;;;9.85
79053;BMP280;68451;49.510;6.026;2023-09-30T05:40:09;99001.00;;;8.90
79053;BMP280;68451;49.510;6.026;2023-09-30T05:42:47;99024.84;;;9.09
79053;BMP280;68451;49.510;6.026;2023-09-30T05:45:13;99052.97;;;9.20
79053;BMP280;68451;49.510;6.026;2023-09-30T05:47:39;99088.84;;;9.39
79053;BMP280;68451;49.510;6.026;2023-09-30T05:50:07;99005.34;;;8.83
79053;BMP280;68451;49.510;6.026;2023-09-30T05:52:33;99141.25;;;9.65
79053;BMP280;68451;49.510;6.026;2023-09-30T05:54:58;99171.09;;;9.84
79053;BMP280;68451;49.510;6.026;2023-09-30T05:57:26;99172.91;;;9.83
79053;BMP280;68451;49.510;6.026;2023-09-30T05:59:52;99132.94;;;9.55
79053;BMP280;68451;49.510;6.026;2023-09-30T06:02:18;99128.09;;;9.52
79053;BMP280;68451;49.510;6.026;2023-09-30T06:04:44;99125.16;;;9.62
79053;BMP280;68451;49.510;6.026;2023-09-30T06:07:11;99130.56;;;9.81
79053;BMP280;68451;49.510;6.026;2023-09-30T06:09:37;99124.78;;;9.86
79053;BMP280;68451;49.510;6.026;2023-09-30T06:12:03;99131.03;;;9.92
79053;BMP280;68451;49.510;6.026;2023-09-30T06:14:32;99132.66;;;9.93
79053;BMP280;68451;49.510;6.026;2023-09-30T06:16:57;99136.72;;;10.02
79053;BMP280;68451;49.510;6.026;2023-09-30T06:19:23;99137.59;;;10.09
79053;BMP280;68451;49.510;6.026;2023-09-30T06:21:50;99154.28;;;10.36
79053;BMP280;68451;49.510;6.026;2023-09-30T06:24:15;99136.19;;;10.34
79053;BMP280;68451;49.510;6.026;2023-09-30T06:26:41;99126.97;;;10.38
79053;BMP280;68451;49.510;6.026;2023-09-30T06:29:06;99071.69;;;10.00
79053;BMP280;68451;49.510;6.026;2023-09-30T06:31:32;99152.41;;;10.57
79053;BMP280;68451;49.510;6.026;2023-09-30T06:33:59;98854.63;;;8.74
79053;BMP280;68451;49.510;6.026;2023-09-30T06:36:25;99159.91;;;10.73
79053;BMP280;68451;49.510;6.026;2023-09-30T06:38:51;99149.50;;;10.80
79053;BMP280;68451;49.510;6.026;2023-09-30T06:41:18;99056.25;;;10.33
79053;BMP280;68451;49.510;6.026;2023-09-30T06:43:44;99127.59;;;10.81
79053;BMP280;68451;49.510;6.026;2023-09-30T06:46:10;99116.00;;;10.97
79053;BMP280;68451;49.510;6.026;2023-09-30T06:48:36;98949.03;;;9.94
79053;BMP280;68451;49.510;6.026;2023-09-30T06:51:02;99068.09;;;10.70
79053;BMP280;68451;49.510;6.026;2023-09-30T06:53:28;98934.03;;;10.02
79053;BMP280;68451;49.510;6.026;2023-09-30T06:55:54;99066.75;;;11.00
79053;BMP280;68451;49.510;6.026;2023-09-30T06:58:20;99157.19;;;11.55
79053;BMP280;68451;49.510;6.026;2023-09-30T07:00:52;99128.59;;;11.41
79053;BMP280;68451;49.510;6.026;2023-09-30T07:03:21;99142.47;;;11.48
79053;BMP280;68451;49.510;6.026;2023-09-30T07:05:47;99138.44;;;11.39
79053;BMP280;68451;49.510;6.026;2023-09-30T07:08:18;99176.91;;;11.58
79053;BMP280;68451;49.510;6.026;2023-09-30T07:10:46;99159.56;;;11.44
79053;BMP280;68451;49.510;6.026;2023-09-30T07:13:15;99140.66;;;11.42
79053;BMP280;68451;49.510;6.026;2023-09-30T07:15:40;99185.13;;;11.48
79053;BMP280;68451;49.510;6.026;2023-09-30T07:18:06;99010.97;;;10.60
79053;BMP280;68451;49.510;6.026;2023-09-30T07:20:31;99146.31;;;11.58
79053;BMP280;68451;49.510;6.026;2023-09-30T07:22:59;99133.25;;;11.72
79053;BMP280;68451;49.510;6.026;2023-09-30T07:25:26;99165.91;;;12.08
79053;BMP280;68451;49.510;6.026;2023-09-30T07:27:51;99117.00;;;11.83
79053;BMP280;68451;49.510;6.026;2023-09-30T07:30:17;99028.59;;;11.32
79053;BMP280;68451;49.510;6.026;2023-09-30T07:32:43;99151.59;;;12.18
79053;BMP280;68451;49.510;6.026;2023-09-30T07:35:10;99168.06;;;12.57
79053;BMP280;68451;49.510;6.026;2023-09-30T07:37:35;98980.94;;;11.76
79053;BMP280;68451;49.510;6.026;2023-09-30T07:40:01;99168.06;;;13.22
79053;BMP280;68451;49.510;6.026;2023-09-30T07:42:26;99146.72;;;13.50
79053;BMP280;68451;49.510;6.026;2023-09-30T07:44:52;99167.78;;;13.99
79053;BMP280;68451;49.510;6.026;2023-09-30T07:47:19;98970.34;;;12.91
79053;BMP280;68451;49.510;6.026;2023-09-30T07:49:45;99116.97;;;13.87
79053;BMP280;68451;49.510;6.026;2023-09-30T07:52:12;99055.03;;;13.61
79053;BMP280;68451;49.510;6.026;2023-09-30T07:54:37;99164.81;;;14.39
79053;BMP280;68451;49.510;6.026;2023-09-30T07:57:03;99132.72;;;14.37
79053;BMP280;68451;49.510;6.026;2023-09-30T07:59:28;99177.69;;;15.01
79053;BMP280;68451;49.510;6.026;2023-09-30T08:01:54;99184.88;;;15.42
79053;BMP280;68451;49.510;6.026;2023-09-30T08:04:20;99156.44;;;15.51
79053;BMP280;68451;49.510;6.026;2023-09-30T08:06:46;99168.13;;;15.55
79053;BMP280;68451;49.510;6.026;2023-09-30T08:09:14;99175.63;;;15.81
79053;BMP280;68451;49.510;6.026;2023-09-30T08:11:41;99149.69;;;16.08
79053;BMP280;68451;49.510;6.026;2023-09-30T08:14:06;99183.94;;;16.08
79053;BMP280;68451;49.510;6.026;2023-09-30T08:16:34;99172.69;;;16.01
79053;BMP280;68451;49.510;6.026;2023-09-30T08:18:59;99164.59;;;16.61
79053;BMP280;68451;49.510;6.026;2023-09-30T08:21:25;99194.69;;;16.99
79053;BMP280;68451;49.510;6.026;2023-09-30T08:23:50;99185.31;;;17.32
79053;BMP280;68451;49.510;6.026;2023-09-30T08:26:16;99181.75;;;17.83
79053;BMP280;68451;49.510;6.026;2023-09-30T08:28:43;99193.84;;;18.62
79053;BMP280;68451;49.510;6.026;2023-09-30T08:31:08;99171.25;;;19.20
79053;BMP280;68451;49.510;6.026;2023-09-30T08:33:34;99140.47;;;19.36
79053;BMP280;68451;49.510;6.026;2023-09-30T08:36:05;99080.88;;;19.65
79053;BMP280;68451;49.510;6.026;2023-09-30T08:38:34;99183.69;;;20.69
79053;BMP280;68451;49.510;6.026;2023-09-30T08:41:00;99137.25;;;20.29
79053;BMP280;68451;49.510;6.026;2023-09-30T08:43:28;99194.63;;;21.50
79053;BMP280;68451;49.510;6.026;2023-09-30T08:45:56;99150.00;;;22.27
79053;BMP280;68451;49.510;6.026;2023-09-30T08:48:23;99159.38;;;22.99
79053;BMP280;68451;49.510;6.026;2023-09-30T08:50:52;99157.94;;;23.66
79053;BMP280;68451;49.510;6.026;2023-09-30T08:53:20;99055.88;;;23.66
79053;BMP280;68451;49.510;6.026;2023-09-30T08:55:46;99163.34;;;25.00
79053;BMP280;68451;49.510;6.026;2023-09-30T08:58:13;99132.94;;;24.96
79053;BMP280;68451;49.510;6.026;2023-09-30T09:00:39;99139.38;;;25.14
79053;BMP280;68451;49.510;6.026;2023-09-30T09:03:08;99111.22;;;25.59
79053;BMP280;68451;49.510;6.026;2023-09-30T09:05:34;99127.28;;;26.05
79053;BMP280;68451;49.510;6.026;2023-09-30T09:07:59;99185.22;;;26.47
79053;BMP280;68451;49.510;6.026;2023-09-30T09:10:25;99146.41;;;26.44
79053;BMP280;68451;49.510;6.026;2023-09-30T09:12:58;99173.59;;;26.51
79053;BMP280;68451;49.510;6.026;2023-09-30T09:15:28;99074.91;;;26.31
79053;BMP280;68451;49.510;6.026;2023-09-30T09:17:54;99144.69;;;27.16
79053;BMP280;68451;49.510;6.026;2023-09-30T09:20:24;99034.09;;;26.75
79053;BMP280;68451;49.510;6.026;2023-09-30T09:22:55;99180.16;;;27.63
79053;BMP280;68451;49.510;6.026;2023-09-30T09:25:22;99139.06;;;26.77
79053;BMP280;68451;49.510;6.026;2023-09-30T09:27:51;99189.16;;;26.49
79053;BMP280;68451;49.510;6.026;2023-09-30T09:30:25;99184.00;;;25.74
79053;BMP280;68451;49.510;6.026;2023-09-30T09:33:00;99186.69;;;24.94
79053;BMP280;68451;49.510;6.026;2023-09-30T09:35:27;99037.84;;;23.13
79053;BMP280;68451;49.510;6.026;2023-09-30T09:40:28;99088.53;;;22.34
79053;BMP280;68451;49.510;6.026;2023-09-30T09:42:54;99183.78;;;22.37
79053;BMP280;68451;49.510;6.026;2023-09-30T09:45:24;99180.38;;;21.96
79053;BMP280;68451;49.510;6.026;2023-09-30T09:47:50;99183.22;;;21.59
79053;BMP280;68451;49.510;6.026;2023-09-30T09:50:18;99127.53;;;20.97
79053;BMP280;68451;49.510;6.026;2023-09-30T09:52:47;99116.34;;;20.80
79053;BMP280;68451;49.510;6.026;2023-09-30T09:55:15;99026.38;;;20.21
79053;BMP280;68451;49.510;6.026;2023-09-30T09:57:43;99127.97;;;20.74
79053;BMP280;68451;49.510;6.026;2023-09-30T10:00:11;99103.94;;;20.38
79053;BMP280;68451;49.510;6.026;2023-09-30T10:02:40;99130.75;;;20.47
79053;BMP280;68451;49.510;6.026;2023-09-30T10:05:06;99131.78;;;21.03
79053;BMP280;68451;49.510;6.026;2023-09-30T10:07:50;99133.75;;;21.43
79053;BMP280;68451;49.510;6.026;2023-09-30T10:10:18;99114.09;;;21.39
79053;BMP280;68451;49.510;6.026;2023-09-30T10:12:44;99134.56;;;21.43
79053;BMP280;68451;49.510;6.026;2023-09-30T10:18:05;99121.78;;;21.25
79053;BMP280;68451;49.510;6.026;2023-09-30T10:20:41;99144.09;;;21.34
79053;BMP280;68451;49.510;6.026;2023-09-30T10:23:26;99141.97;;;21.21
79053;BMP280;68451;49.510;6.026;2023-09-30T10:28:41;99140.06;;;21.07
79053;BMP280;68451;49.510;6.026;2023-09-30T10:31:19;99163.66;;;21.08
79053;BMP280;68451;49.510;6.026;2023-09-30T10:36:31;99153.09;;;21.13
79053;BMP280;68451;49.510;6.026;2023-09-30T10:38:57;99097.75;;;20.80
79053;BMP280;68451;49.510;6.026;2023-09-30T10:46:58;99111.53;;;20.82
79053;BMP280;68451;49.510;6.026;2023-09-30T10:51:51;99137.59;;;20.95
79053;BMP280;68451;49.510;6.026;2023-09-30T10:54:31;98978.28;;;20.02
79053;BMP280;68451;49.510;6.026;2023-09-30T10:56:57;99153.91;;;21.19
79053;BMP280;68451;49.510;6.026;2023-09-30T10:59:27;99052.56;;;20.60
79053;BMP280;68451;49.510;6.026;2023-09-30T11:01:56;99073.91;;;21.00
79053;BMP280;68451;49.510;6.026;2023-09-30T11:04:22;99129.78;;;21.46
79053;BMP280;68451;49.510;6.026;2023-09-30T11:06:48;99135.88;;;21.31
79053;BMP280;68451;49.510;6.026;2023-09-30T11:09:19;98978.69;;;20.31
79053;BMP280;68451;49.510;6.026;2023-09-30T11:11:49;99102.41;;;21.30
79053;BMP280;68451;49.510;6.026;2023-09-30T11:14:22;99159.06;;;21.76
79053;BMP280;68451;49.510;6.026;2023-09-30T11:16:50;99136.72;;;21.67
79053;BMP280;68451;49.510;6.026;2023-09-30T11:19:16;99006.97;;;20.98
79053;BMP280;68451;49.510;6.026;2023-09-30T11:21:42;99096.84;;;21.62
79053;BMP280;68451;49.510;6.026;2023-09-30T11:24:11;99130.91;;;21.95
79053;BMP280;68451;49.510;6.026;2023-09-30T11:26:37;99094.44;;;21.80
79053;BMP280;68451;49.510;6.026;2023-09-30T11:31:32;99131.97;;;21.94
79053;BMP280;68451;49.510;6.026;2023-09-30T11:34:00;99151.91;;;22.07
79053;BMP280;68451;49.510;6.026;2023-09-30T11:36:30;99083.81;;;21.65
79053;BMP280;68451;49.510;6.026;2023-09-30T11:38:56;99157.47;;;22.20
79053;BMP280;68451;49.510;6.026;2023-09-30T11:41:31;99091.00;;;21.90
79053;BMP280;68451;49.510;6.026;2023-09-30T11:43:59;99092.59;;;21.86
79053;BMP280;68451;49.510;6.026;2023-09-30T11:46:30;99108.00;;;21.84
79053;BMP280;68451;49.510;6.026;2023-09-30T11:48:57;98884.56;;;20.34
79053;BMP280;68451;49.510;6.026;2023-09-30T11:51:25;99103.75;;;21.63
79053;BMP280;68451;49.510;6.026;2023-09-30T11:53:52;99143.13;;;21.91
79053;BMP280;68451;49.510;6.026;2023-09-30T11:56:19;99129.84;;;21.96
79053;BMP280;68451;49.510;6.026;2023-09-30T11:58:45;99140.19;;;22.13
79053;BMP280;68451;49.510;6.026;2023-09-30T12:01:11;99094.75;;;21.94
79053;BMP280;68451;49.510;6.026;2023-09-30T12:03:39;99119.97;;;22.17
79053;BMP280;68451;49.510;6.026;2023-09-30T12:06:06;98955.78;;;21.18
79053;BMP280;68451;49.510;6.026;2023-09-30T12:08:31;99122.34;;;22.23
79053;BMP280;68451;49.510;6.026;2023-09-30T12:10:57;99042.63;;;21.73
79053;BMP280;68451;49.510;6.026;2023-09-30T12:13:25;99072.66;;;21.94
79053;BMP280;68451;49.510;6.026;2023-09-30T12:15:50;99127.16;;;22.06
79053;BMP280;68451;49.510;6.026;2023-09-30T12:18:18;99130.88;;;21.85
79053;BMP280;68451;49.510;6.026;2023-09-30T12:20:52;99127.16;;;21.71
79053;BMP280;68451;49.510;6.026;2023-09-30T12:23:18;99044.50;;;21.22
79053;BMP280;68451;49.510;6.026;2023-09-30T12:25:45;99129.28;;;21.69
79053;BMP280;68451;49.510;6.026;2023-09-30T12:28:11;99118.38;;;21.65
79053;BMP280;68451;49.510;6.026;2023-09-30T12:30:37;98962.34;;;20.65
79053;BMP280;68451;49.510;6.026;2023-09-30T12:33:02;99099.25;;;21.58
79053;BMP280;68451;49.510;6.026;2023-09-30T12:35:28;99114.41;;;21.68
79053;BMP280;68451;49.510;6.026;2023-09-30T12:37:55;98943.50;;;20.51
79053;BMP280;68451;49.510;6.026;2023-09-30T12:40:20;99099.78;;;21.45
79053;BMP280;68451;49.510;6.026;2023-09-30T12:42:46;99105.88;;;21.40
79053;BMP280;68451;49.510;6.026;2023-09-30T12:45:12;98984.59;;;20.53
79053;BMP280;68451;49.510;6.026;2023-09-30T12:47:38;99076.31;;;21.07
79053;BMP280;68451;49.510;6.026;2023-09-30T12:50:04;99111.16;;;21.20
79053;BMP280;68451;49.510;6.026;2023-09-30T12:52:30;98838.13;;;19.49
79053;BMP280;68451;49.510;6.026;2023-09-30T12:54:57;99031.88;;;20.62
79053;BMP280;68451;49.510;6.026;2023-09-30T12:57:23;99056.34;;;20.79
79053;BMP280;68451;49.510;6.026;2023-09-30T12:59:49;99074.94;;;20.89
79053;BMP280;68451;49.510;6.026;2023-09-30T13:02:15;99065.63;;;20.86
79053;BMP280;68451;49.510;6.026;2023-09-30T13:04:41;99037.22;;;20.77
79053;BMP280;68451;49.510;6.026;2023-09-30T13:07:10;99056.63;;;20.92
79053;BMP280;68451;49.510;6.026;2023-09-30T13:09:38;98961.97;;;20.26
79053;BMP280;68451;49.510;6.026;2023-09-30T13:12:04;99040.41;;;20.74
79053;BMP280;68451;49.510;6.026;2023-09-30T13:14:30;98959.28;;;20.21
79053;BMP280;68451;49.510;6.026;2023-09-30T13:16:55;99056.84;;;20.76
79053;BMP280;68451;49.510;6.026;2023-09-30T13:19:21;99064.81;;;20.81
79053;BMP280;68451;49.510;6.026;2023-09-30T13:21:50;99061.66;;;20.79
79053;BMP280;68451;49.510;6.026;2023-09-30T13:24:21;98808.03;;;19.18
79053;BMP280;68451;49.510;6.026;2023-09-30T13:26:47;99044.88;;;20.68
79053;BMP280;68451;49.510;6.026;2023-09-30T13:29:14;99045.38;;;20.60
79053;BMP280;68451;49.510;6.026;2023-09-30T13:31:42;98903.66;;;19.74
79053;BMP280;68451;49.510;6.026;2023-09-30T13:34:08;98920.19;;;19.86
79053;BMP280;68451;49.510;6.026;2023-09-30T13:36:33;98979.16;;;20.23
79053;BMP280;68451;49.510;6.026;2023-09-30T13:38:59;99044.06;;;20.63
79053;BMP280;68451;49.510;6.026;2023-09-30T13:41:26;99058.69;;;20.70
79053;BMP280;68451;49.510;6.026;2023-09-30T13:43:52;99039.31;;;20.65
79053;BMP280;68451;49.510;6.026;2023-09-30T13:46:18;99053.13;;;20.72
79053;BMP280;68451;49.510;6.026;2023-09-30T13:48:44;99049.91;;;20.65
79053;BMP280;68451;49.510;6.026;2023-09-30T13:51:10;99043.00;;;20.59
79053;BMP280;68451;49.510;6.026;2023-09-30T13:53:36;99033.13;;;20.44
79053;BMP280;68451;49.510;6.026;2023-09-30T13:56:02;99018.78;;;20.35
79053;BMP280;68451;49.510;6.026;2023-09-30T13:58:29;99054.09;;;20.45
79053;BMP280;68451;49.510;6.026;2023-09-30T14:00:54;99031.72;;;20.26
79053;BMP280;68451;49.510;6.026;2023-09-30T14:03:22;98973.44;;;19.84
79053;BMP280;68451;49.510;6.026;2023-09-30T14:05:50;98901.31;;;19.35
79053;BMP280;68451;49.510;6.026;2023-09-30T14:08:15;99016.69;;;19.95
79053;BMP280;68451;49.510;6.026;2023-09-30T14:10:42;99055.47;;;20.11
79053;BMP280;68451;49.510;6.026;2023-09-30T14:13:09;99003.84;;;19.72
79053;BMP280;68451;49.510;6.026;2023-09-30T14:15:35;99025.69;;;19.94
79053;BMP280;68451;49.510;6.026;2023-09-30T14:18:00;99049.63;;;20.04
79053;BMP280;68451;49.510;6.026;2023-09-30T14:20:27;99044.50;;;19.92
79053;BMP280;68451;49.510;6.026;2023-09-30T14:22:53;99028.00;;;19.80
79053;BMP280;68451;49.510;6.026;2023-09-30T14:25:20;99023.22;;;19.77
79053;BMP280;68451;49.510;6.026;2023-09-30T14:27:47;98822.16;;;18.55
79053;BMP280;68451;49.510;6.026;2023-09-30T14:30:13;99055.31;;;19.81